createdAt,value
2019-05-12T00:02:00.815Z,75.63
2019-05-12T00:04:29.927Z,75.66
2019-05-12T00:06:58.995Z,75.53
2019-05-12T00:09:28.448Z,75.34
2019-05-12T00:11:59.127Z,75.33
2019-05-12T00:14:28.409Z,75.13
2019-05-12T00:16:58.097Z,75.04
2019-05-12T00:19:28.583Z,74.75
2019-05-12T00:21:58.740Z,74.52
2019-05-12T00:24:28.179Z,74.40
2019-05-12T00:26:59.315Z,74.26
2019-05-12T00:29:28.764Z,74.29
2019-05-12T00:31:58.122Z,74.16
2019-05-12T00:34:28.881Z,73.97
2019-05-12T00:36:58.202Z,73.77
2019-05-12T00:39:27.904Z,73.34
2019-05-12T00:41:58.627Z,73.11
2019-05-12T00:44:28.534Z,73.10
2019-05-12T00:46:57.836Z,72.93
2019-05-12T00:49:28.954Z,72.53
2019-05-12T00:51:58.732Z,72.32
2019-05-12T00:54:28.413Z,72.08
2019-05-12T00:56:58.590Z,71.58
2019-05-12T00:59:28.018Z,71.13
2019-05-12T01:01:58.626Z,71.09
2019-05-12T01:04:29.102Z,70.98
2019-05-12T01:06:58.417Z,70.63
2019-05-12T01:09:28.218Z,70.62
2019-05-12T01:11:58.769Z,70.64
2019-05-12T01:14:28.092Z,70.60
2019-05-12T01:16:57.858Z,70.88
2019-05-12T01:19:32.898Z,70.90
2019-05-12T01:22:01.955Z,70.84
2019-05-12T01:24:31.048Z,70.87
2019-05-12T01:27:00.111Z,70.83
2019-05-12T01:29:29.189Z,70.93
2019-05-12T01:32:04.470Z,71.26
2019-05-12T01:34:33.583Z,71.30
2019-05-12T01:37:20.430Z,71.58
2019-05-12T01:39:49.463Z,71.74
2019-05-12T01:42:18.556Z,71.71
2019-05-12T01:44:48.149Z,71.78
2019-05-12T01:47:18.794Z,71.84
2019-05-12T01:49:48.800Z,71.81
2019-05-12T01:52:17.986Z,71.83
2019-05-12T01:54:48.302Z,71.90
2019-05-12T01:57:18.800Z,72.07
2019-05-12T01:59:48.447Z,72.25
2019-05-12T02:02:18.016Z,72.36
2019-05-12T02:05:08.582Z,72.42
2019-05-12T02:07:58.404Z,72.36
2019-05-12T02:10:28.711Z,72.51
2019-05-12T02:12:59.306Z,72.53
2019-05-12T02:15:28.750Z,72.63
2019-05-12T02:17:58.968Z,72.77
2019-05-12T02:20:28.948Z,72.89
2019-05-12T02:22:58.604Z,72.89
2019-05-12T02:25:28.654Z,73.05
2019-05-12T02:27:58.599Z,73.10
2019-05-12T02:30:30.293Z,73.25
2019-05-12T02:32:59.681Z,73.22
2019-05-12T02:35:29.026Z,73.38
2019-05-12T02:37:58.104Z,73.49
2019-05-12T02:40:27.214Z,73.53
2019-05-12T02:42:56.324Z,73.58
2019-05-12T02:45:25.896Z,73.66
2019-05-12T02:47:55.152Z,73.68
2019-05-12T02:50:35.903Z,73.62
2019-05-12T02:53:05.862Z,73.81
2019-05-12T02:55:35.738Z,73.93
2019-05-12T02:58:06.202Z,74.11
2019-05-12T03:00:36.359Z,74.22
2019-05-12T03:03:08.413Z,74.14
2019-05-12T03:05:38.712Z,74.15
2019-05-12T03:08:07.758Z,74.09
2019-05-12T03:10:37.123Z,74.22
2019-05-12T03:13:06.195Z,74.36
2019-05-12T03:15:37.373Z,74.35
2019-05-12T03:18:07.005Z,74.48
2019-05-12T03:20:36.362Z,74.60
2019-05-12T03:23:06.427Z,74.61
2019-05-12T03:25:37.114Z,74.63
2019-05-12T03:28:08.718Z,74.74
2019-05-12T03:30:39.984Z,74.67
2019-05-12T03:33:10.743Z,74.68
2019-05-12T03:35:43.635Z,74.61
2019-05-12T03:38:09.660Z,74.74
2019-05-12T03:40:39.137Z,74.87
2019-05-12T03:43:08.348Z,74.84
2019-05-12T03:45:37.405Z,74.96
2019-05-12T03:48:06.663Z,74.95
2019-05-12T03:50:36.363Z,75.04
2019-05-12T03:53:10.056Z,75.09
2019-05-12T03:55:41.842Z,75.09
2019-05-12T03:58:07.574Z,75.16
2019-05-12T04:00:36.770Z,75.21
2019-05-12T04:03:06.049Z,75.33
2019-05-12T04:05:37.009Z,75.31
2019-05-12T04:08:06.758Z,75.34
2019-05-12T04:10:36.868Z,75.52
2019-05-12T04:13:06.422Z,75.55
2019-05-12T04:15:35.957Z,75.59
2019-05-12T04:18:06.475Z,75.72
2019-05-12T04:20:36.523Z,75.74
2019-05-12T04:23:06.818Z,75.90
2019-05-12T04:25:50.872Z,75.79
2019-05-12T04:28:07.007Z,75.85
2019-05-12T04:30:36.207Z,75.91
2019-05-12T04:33:05.912Z,75.94
2019-05-12T04:35:35.893Z,76.01
2019-05-12T04:38:05.586Z,76.20
2019-05-12T04:40:36.187Z,76.26
2019-05-12T04:43:06.601Z,76.24
2019-05-12T04:45:35.998Z,76.20
2019-05-12T04:48:06.064Z,76.26
2019-05-12T04:50:36.394Z,76.28
2019-05-12T04:53:06.730Z,76.41
2019-05-12T04:55:36.615Z,76.47
2019-05-12T04:58:06.349Z,76.53
2019-05-12T05:00:36.085Z,76.67
2019-05-12T05:03:05.949Z,76.71
2019-05-12T05:05:36.224Z,76.71
2019-05-12T05:08:05.748Z,76.69
2019-05-12T05:10:35.134Z,76.71
2019-05-12T05:13:05.563Z,76.77
2019-05-12T05:15:35.514Z,76.82
2019-05-12T05:18:06.771Z,76.88
2019-05-12T05:20:35.729Z,76.97
2019-05-12T05:23:04.913Z,77.00
2019-05-12T05:25:34.710Z,76.92
2019-05-12T05:28:04.333Z,76.90
2019-05-12T05:30:34.167Z,77.00
2019-05-12T05:33:05.073Z,76.86
2019-05-12T05:35:39.694Z,76.85
2019-05-12T05:38:06.039Z,76.91
2019-05-12T05:40:36.040Z,76.84
2019-05-12T05:43:12.401Z,76.96
2019-05-12T05:45:36.108Z,77.06
2019-05-12T05:48:09.717Z,77.09
2019-05-12T05:50:36.006Z,77.03
2019-05-12T05:53:09.170Z,77.02
2019-05-12T05:55:35.904Z,77.07
2019-05-12T05:58:10.071Z,76.95
2019-05-12T06:00:39.075Z,77.15
2019-05-12T06:03:17.049Z,77.19
2019-05-12T06:05:38.672Z,77.04
2019-05-12T06:08:18.669Z,77.01
2019-05-12T06:10:40.418Z,77.00
2019-05-12T06:13:09.711Z,77.06
2019-05-12T06:15:40.814Z,77.08
2019-05-12T06:18:09.589Z,76.93
2019-05-12T06:20:38.662Z,76.78
2019-05-12T06:23:07.766Z,76.38
2019-05-12T06:25:46.466Z,76.12
2019-05-12T06:28:08.943Z,76.06
2019-05-12T06:30:44.131Z,76.24
2019-05-12T06:33:09.024Z,76.26
2019-05-12T06:35:42.195Z,76.17
2019-05-12T06:38:08.963Z,76.24
2019-05-12T06:40:42.303Z,76.39
2019-05-12T06:43:08.855Z,76.12
2019-05-12T06:45:42.655Z,76.09
2019-05-12T06:48:08.744Z,75.96
2019-05-12T06:50:39.390Z,75.89
2019-05-12T06:53:08.676Z,75.51
2019-05-12T06:55:39.396Z,75.51
2019-05-12T06:58:08.721Z,75.35
2019-05-12T07:00:37.810Z,75.19
2019-05-12T07:03:06.883Z,75.16
2019-05-12T07:05:38.437Z,74.90
2019-05-12T07:08:06.754Z,74.56
2019-05-12T07:10:43.072Z,74.47
2019-05-12T07:13:06.642Z,74.38
2019-05-12T07:15:40.399Z,74.31
2019-05-12T07:18:10.388Z,74.18
2019-05-12T07:20:39.610Z,74.11
2019-05-12T07:23:08.631Z,73.66
2019-05-12T07:25:37.707Z,73.48
2019-05-12T07:28:08.104Z,73.29
2019-05-12T07:30:37.430Z,73.18
2019-05-12T07:33:06.498Z,73.04
2019-05-12T07:35:35.631Z,72.89
2019-05-12T07:38:05.133Z,72.25
2019-05-12T07:40:37.415Z,71.50
2019-05-12T07:43:09.851Z,71.16
2019-05-12T07:45:36.039Z,70.98
2019-05-12T07:48:10.083Z,70.84
2019-05-12T07:50:35.916Z,70.38
2019-05-12T07:53:05.015Z,69.76
2019-05-12T07:55:34.418Z,69.41
2019-05-12T07:58:12.637Z,69.39
2019-05-12T08:00:34.509Z,69.48
2019-05-12T08:03:16.286Z,69.33
2019-05-12T08:05:36.939Z,68.29
2019-05-12T08:08:09.377Z,68.07
2019-05-12T08:10:36.881Z,67.82
2019-05-12T08:13:05.938Z,67.49
2019-05-12T08:15:35.023Z,67.24
2019-05-12T08:18:07.858Z,66.59
2019-05-12T08:20:34.923Z,66.53
2019-05-12T08:23:10.257Z,66.89
2019-05-12T08:25:35.298Z,66.56
2019-05-12T08:30:56.026Z,65.42
2019-05-12T08:33:25.619Z,63.44
2019-05-12T08:35:55.366Z,62.71
2019-05-12T08:38:24.994Z,63.10
2019-05-12T08:40:54.529Z,63.07
2019-05-12T08:43:24.197Z,62.65
2019-05-12T08:45:53.621Z,62.96
2019-05-12T08:48:24.972Z,62.23
2019-05-12T08:50:54.562Z,61.67
2019-05-12T08:53:26.057Z,61.54
2019-05-12T08:55:54.736Z,61.04
2019-05-12T08:58:33.178Z,60.93
2019-05-12T09:00:57.528Z,61.43
2019-05-12T09:03:30.344Z,61.36
2019-05-12T09:05:57.342Z,60.08
2019-05-12T09:08:26.895Z,59.18
2019-05-12T09:10:56.053Z,58.09
2019-05-12T09:13:25.050Z,57.96
2019-05-12T09:15:54.304Z,58.59
2019-05-12T09:18:28.508Z,57.85
2019-05-12T09:20:55.714Z,57.20
2019-05-12T09:23:25.015Z,56.69
2019-05-12T09:25:57.267Z,56.15
2019-05-12T09:28:24.835Z,55.06
2019-05-12T09:30:54.479Z,54.19
2019-05-12T09:33:29.616Z,54.73
2019-05-12T09:35:54.409Z,54.58
2019-05-12T09:38:26.246Z,54.48
2019-05-12T09:41:00.840Z,54.96
2019-05-12T09:43:25.063Z,54.41
2019-05-12T09:45:56.468Z,53.49
2019-05-12T09:48:24.924Z,53.00
2019-05-12T09:51:00.255Z,52.68
2019-05-12T09:53:24.820Z,52.91
2019-05-12T09:55:54.026Z,52.90
2019-05-12T09:58:27.240Z,51.82
2019-05-12T10:00:54.446Z,51.45
2019-05-12T10:03:24.179Z,51.41
2019-05-12T10:05:53.530Z,52.40
2019-05-12T10:08:24.192Z,53.48
2019-05-12T10:10:53.688Z,52.98
2019-05-12T10:13:28.170Z,52.91
2019-05-12T10:15:53.751Z,51.19
2019-05-12T10:19:23.507Z,51.15
2019-05-12T10:22:05.290Z,51.92
2019-05-12T10:24:41.463Z,51.63
2019-05-12T10:27:05.162Z,51.13
2019-05-12T10:29:34.230Z,49.65
2019-05-12T10:32:03.981Z,48.26
2019-05-12T10:34:38.115Z,49.24
2019-05-12T10:37:04.252Z,48.95
2019-05-12T10:39:33.510Z,48.95
2019-05-12T10:42:02.669Z,49.51
2019-05-12T10:44:37.717Z,49.06
2019-05-12T10:47:04.573Z,48.50
2019-05-12T10:49:33.847Z,50.08
2019-05-12T10:52:03.848Z,46.97
2019-05-12T10:54:34.247Z,46.01
2019-05-12T10:57:04.990Z,45.94
2019-05-12T10:59:38.759Z,46.94
2019-05-12T11:02:05.071Z,46.34
2019-05-12T11:04:38.867Z,46.41
2019-05-12T11:07:04.934Z,46.62
2019-05-12T11:09:34.676Z,46.63
2019-05-12T11:12:03.860Z,45.14
2019-05-12T11:14:34.163Z,45.19
2019-05-12T11:17:07.541Z,43.71
2019-05-12T11:19:40.738Z,44.78
2019-05-12T11:22:06.547Z,44.02
2019-05-12T11:24:35.641Z,42.77
2019-05-12T11:27:04.738Z,40.68
2019-05-12T11:29:45.668Z,41.35
2019-05-12T11:32:04.647Z,42.46
2019-05-12T11:34:33.669Z,41.98
2019-05-12T11:37:03.403Z,43.64
2019-05-12T11:39:38.683Z,42.73
2019-05-12T11:42:04.184Z,41.48
2019-05-12T11:44:33.790Z,41.06
2019-05-12T11:47:03.666Z,40.23
2019-05-12T11:49:33.355Z,39.23
2019-05-12T11:52:07.478Z,38.49
2019-05-12T11:54:33.689Z,38.36
2019-05-12T11:57:02.780Z,38.96
2019-05-12T11:59:34.030Z,39.27
2019-05-12T12:02:02.573Z,38.77
2019-05-12T12:04:47.057Z,37.35
2019-05-12T12:07:16.645Z,36.95
2019-05-12T12:09:49.551Z,35.50
2019-05-12T12:12:16.601Z,35.43
2019-05-12T12:14:50.180Z,35.45
2019-05-12T12:17:16.523Z,33.14
2019-05-12T12:19:46.935Z,32.85
2019-05-12T12:22:20.509Z,31.84
2019-05-12T12:24:46.861Z,31.46
2019-05-12T12:27:15.916Z,30.70
2019-05-12T12:29:44.986Z,32.94
2019-05-12T12:32:18.454Z,33.84
2019-05-12T12:34:44.808Z,33.98
2019-05-12T12:37:18.806Z,33.09
2019-05-12T12:39:44.739Z,30.44
2019-05-12T12:42:14.059Z,30.12
2019-05-12T12:44:43.184Z,30.22
2019-05-12T12:47:13.901Z,28.66
2019-05-12T12:49:45.361Z,30.86
2019-05-12T12:52:14.012Z,29.45
2019-05-12T12:54:43.854Z,29.39
2019-05-12T12:57:13.591Z,28.47
2019-05-12T12:59:51.004Z,28.93
2019-05-12T13:02:14.298Z,28.22
2019-05-12T13:04:46.056Z,28.64
2019-05-12T13:07:14.521Z,29.72
2019-05-12T13:09:44.082Z,29.17
2019-05-12T13:12:17.009Z,28.18
2019-05-12T13:14:44.400Z,27.99
2019-05-12T13:17:14.269Z,26.84
2019-05-12T13:19:43.765Z,26.88
2019-05-12T13:22:14.971Z,27.33
2019-05-12T13:24:44.012Z,27.98
2019-05-12T13:27:14.212Z,27.14
2019-05-12T13:29:43.337Z,25.97
2019-05-12T13:32:13.775Z,27.29
2019-05-12T13:34:43.123Z,28.15
2019-05-12T13:37:15.573Z,28.00
2019-05-12T13:39:55.338Z,27.21
2019-05-12T13:42:13.921Z,26.26
2019-05-12T13:44:43.619Z,26.74
2019-05-12T13:47:14.031Z,26.24
2019-05-12T13:49:47.014Z,25.19
2019-05-12T13:52:14.010Z,25.57
2019-05-12T13:54:43.700Z,26.16
2019-05-12T13:57:13.386Z,25.61
2019-05-12T13:59:43.491Z,26.09
2019-05-12T14:02:13.944Z,24.66
2019-05-12T14:04:44.332Z,24.08
2019-05-12T14:07:17.872Z,24.16
2019-05-12T14:09:44.427Z,24.01
2019-05-12T14:12:13.679Z,24.02
2019-05-12T14:14:43.697Z,23.79
2019-05-12T14:17:14.820Z,24.43
2019-05-12T14:19:46.106Z,25.27
2019-05-12T14:22:21.328Z,23.60
2019-05-12T14:24:46.835Z,23.46
2019-05-12T14:27:24.306Z,24.22
2019-05-12T14:29:50.067Z,24.09
2019-05-12T14:32:19.277Z,24.11
2019-05-12T14:34:54.345Z,24.59
2019-05-12T14:37:19.214Z,23.43
2019-05-12T14:39:50.280Z,23.63
2019-05-12T14:42:19.117Z,24.13
2019-05-12T14:44:49.758Z,23.52
2019-05-12T14:47:24.078Z,22.98
2019-05-12T14:49:49.783Z,22.92
2019-05-12T14:52:18.789Z,23.15
2019-05-12T14:54:47.775Z,23.43
2019-05-12T14:57:16.865Z,23.59
2019-05-12T14:59:45.926Z,23.68
2019-05-12T15:02:19.441Z,23.09
2019-05-12T15:04:45.786Z,23.69
2019-05-12T15:07:15.387Z,23.57
2019-05-12T15:09:44.512Z,23.89
2019-05-12T15:12:14.135Z,24.30
2019-05-12T15:14:43.868Z,23.32
2019-05-12T15:17:22.223Z,23.40
2019-05-12T15:19:44.117Z,23.63
2019-05-12T15:22:14.707Z,23.65
2019-05-12T15:24:44.184Z,23.69
2019-05-12T15:27:13.563Z,23.66
2019-05-12T15:29:42.739Z,23.58
2019-05-12T15:32:11.847Z,23.92
2019-05-12T15:34:40.872Z,23.80
2019-05-12T15:37:09.950Z,23.63
2019-05-12T15:39:39.016Z,23.90
2019-05-12T15:42:08.111Z,23.70
2019-05-12T15:44:37.182Z,23.98
2019-05-12T15:47:06.245Z,23.86
2019-05-12T15:49:35.287Z,24.04
2019-05-12T15:52:04.360Z,24.36
2019-05-12T15:54:35.847Z,25.04
2019-05-12T15:57:04.307Z,25.57
2019-05-12T15:59:34.547Z,25.54
2019-05-12T16:02:12.391Z,25.05
2019-05-12T16:04:42.543Z,25.10
2019-05-12T16:07:05.478Z,25.10
2019-05-12T16:09:34.778Z,25.86
2019-05-12T16:12:09.485Z,26.15
2019-05-12T16:14:36.859Z,26.32
2019-05-12T16:17:06.624Z,26.43
2019-05-12T16:19:35.811Z,26.92
2019-05-12T16:22:04.894Z,26.75
2019-05-12T16:24:34.193Z,27.28
2019-05-12T16:27:03.727Z,26.99
2019-05-12T16:29:33.970Z,26.70
2019-05-12T16:32:04.525Z,27.12
2019-05-12T16:34:36.094Z,26.55
2019-05-12T16:37:05.306Z,26.33
2019-05-12T16:39:37.142Z,27.02
2019-05-12T16:42:09.188Z,27.80
2019-05-12T16:44:35.994Z,27.93
2019-05-12T16:47:05.042Z,27.22
2019-05-12T16:49:35.217Z,27.41
2019-05-12T16:52:04.992Z,27.26
2019-05-12T16:54:34.082Z,26.85
2019-05-12T16:57:08.455Z,27.13
2019-05-12T16:59:33.979Z,27.31
2019-05-12T17:02:05.514Z,27.54
2019-05-12T17:04:33.850Z,27.02
2019-05-12T17:07:03.008Z,26.75
2019-05-12T17:09:33.260Z,26.73
2019-05-12T17:12:04.917Z,27.08
2019-05-12T17:14:38.712Z,27.07
2019-05-12T17:17:04.048Z,26.58
2019-05-12T17:19:34.032Z,26.96
2019-05-12T17:22:04.013Z,27.52
2019-05-12T17:24:34.450Z,27.87
2019-05-12T17:27:03.889Z,28.27
2019-05-12T17:29:34.544Z,28.27
2019-05-12T17:32:04.246Z,27.87
2019-05-12T17:34:34.087Z,28.26
2019-05-12T17:37:03.989Z,28.85
2019-05-12T17:39:35.715Z,28.71
2019-05-12T17:42:04.140Z,28.08
2019-05-12T17:44:36.784Z,27.67
2019-05-12T17:47:03.956Z,27.76
2019-05-12T17:49:33.025Z,27.76
2019-05-12T17:52:12.305Z,28.11
2019-05-12T17:54:34.173Z,28.65
2019-05-12T17:57:03.939Z,28.54
2019-05-12T17:59:33.409Z,28.61
2019-05-12T18:02:05.850Z,28.71
2019-05-12T18:04:36.698Z,29.00
2019-05-12T18:07:30.450Z,29.55
2019-05-12T18:09:50.401Z,29.69
2019-05-12T18:12:26.872Z,29.75
2019-05-12T18:14:52.676Z,29.96
2019-05-12T18:17:23.653Z,30.08
2019-05-12T18:19:59.031Z,30.46
2019-05-12T18:22:23.641Z,30.87
2019-05-12T18:24:54.311Z,30.84
2019-05-12T18:27:23.346Z,30.68
2019-05-12T18:29:53.607Z,30.89
2019-05-12T18:32:24.371Z,30.83
2019-05-12T18:34:53.982Z,30.66
2019-05-12T18:37:24.061Z,30.83
2019-05-12T18:39:53.591Z,31.17
2019-05-12T18:42:24.579Z,31.74
2019-05-12T18:44:54.612Z,31.93
2019-05-12T18:47:32.008Z,32.14
2019-05-12T18:49:54.482Z,32.39
2019-05-12T18:52:23.759Z,32.81
2019-05-12T18:54:57.004Z,33.41
2019-05-12T18:57:23.954Z,33.41
2019-05-12T18:59:57.143Z,33.88
2019-05-12T19:02:28.328Z,33.81
2019-05-12T19:04:54.694Z,34.28
2019-05-12T19:07:38.927Z,34.52
2019-05-12T19:09:54.594Z,34.88
2019-05-12T19:12:31.892Z,34.96
2019-05-12T19:14:54.793Z,35.16
2019-05-12T19:17:24.210Z,35.57
2019-05-12T19:19:59.628Z,35.41
2019-05-12T19:22:24.412Z,35.43
2019-05-12T19:24:56.753Z,35.43
2019-05-12T19:27:24.266Z,35.79
2019-05-12T19:29:54.549Z,36.05
2019-05-12T19:32:28.004Z,36.30
2019-05-12T19:34:54.706Z,36.58
2019-05-12T19:37:26.406Z,37.06
2019-05-12T19:39:54.633Z,36.94
2019-05-12T19:42:24.481Z,37.08
2019-05-12T19:44:56.605Z,37.46
2019-05-12T19:47:33.240Z,37.80
2019-05-12T19:49:59.472Z,37.98
2019-05-12T19:52:26.046Z,38.13
2019-05-12T19:54:55.241Z,38.30
2019-05-12T19:57:26.236Z,38.74
2019-05-12T19:59:55.945Z,38.93
2019-05-12T20:02:25.187Z,38.96
2019-05-12T20:04:56.552Z,39.05
2019-05-12T20:07:25.079Z,39.30
2019-05-12T20:09:58.671Z,39.61
2019-05-12T20:12:24.930Z,39.63
2019-05-12T20:14:56.735Z,39.90
2019-05-12T20:17:24.772Z,40.03
2019-05-12T20:19:54.136Z,40.29
2019-05-12T20:22:24.354Z,40.43
2019-05-12T20:24:53.830Z,40.51
2019-05-12T20:27:24.730Z,40.64
2019-05-12T20:29:54.132Z,40.81
2019-05-12T20:32:24.125Z,41.19
2019-05-12T20:34:55.418Z,41.46
2019-05-12T20:37:24.034Z,41.52
2019-05-12T20:40:00.108Z,41.74
2019-05-12T20:42:25.786Z,42.29
2019-05-12T20:44:57.805Z,42.43
2019-05-12T20:47:25.506Z,42.77
2019-05-12T20:49:54.567Z,42.79
2019-05-12T20:52:23.808Z,42.83
2019-05-12T20:54:57.756Z,42.86
2019-05-12T20:57:23.783Z,43.13
2019-05-12T20:59:52.851Z,43.32
2019-05-12T21:02:23.412Z,43.50
2019-05-12T21:05:00.450Z,43.57
2019-05-12T21:07:26.825Z,43.91
2019-05-12T21:09:54.063Z,44.07
2019-05-12T21:12:24.180Z,44.26
2019-05-12T21:14:57.425Z,44.55
2019-05-12T21:17:38.953Z,44.46
2019-05-12T21:19:58.879Z,44.58
2019-05-12T21:22:25.507Z,44.88
2019-05-12T21:24:54.579Z,45.23
2019-05-12T21:27:23.580Z,45.26
2019-05-12T21:29:54.098Z,45.31
2019-05-12T21:32:24.052Z,45.68
2019-05-12T21:34:57.943Z,45.84
2019-05-12T21:37:25.434Z,46.07
2019-05-12T21:39:54.551Z,46.33
2019-05-12T21:42:25.168Z,46.55
2019-05-12T21:44:54.215Z,46.80
2019-05-12T21:47:24.279Z,46.86
2019-05-12T21:49:57.759Z,47.01
2019-05-12T21:52:24.227Z,47.37
2019-05-12T21:54:55.429Z,47.59
2019-05-12T21:57:27.370Z,48.00
2019-05-12T21:59:55.664Z,48.07
2019-05-12T22:02:30.464Z,48.28
2019-05-12T22:04:56.042Z,48.53
2019-05-12T22:07:29.537Z,48.87
2019-05-12T22:09:55.966Z,49.08
2019-05-12T22:12:28.579Z,49.37
2019-05-12T22:14:55.813Z,49.55
2019-05-12T22:17:24.853Z,49.83
2019-05-12T22:19:53.829Z,50.11
2019-05-12T22:22:25.748Z,50.18
2019-05-12T22:24:53.828Z,50.45
2019-05-12T22:27:27.129Z,50.73
2019-05-12T22:29:54.078Z,50.98
2019-05-12T22:32:25.274Z,51.22
2019-05-12T22:34:54.425Z,51.29
2019-05-12T22:37:24.029Z,51.38
2019-05-12T22:39:53.534Z,51.57
2019-05-12T22:42:24.436Z,51.72
2019-05-12T22:45:01.443Z,51.94
2019-05-12T22:47:24.353Z,52.18
2019-05-12T22:49:56.986Z,52.33
2019-05-12T22:52:24.204Z,52.43
2019-05-12T22:54:53.721Z,52.58
2019-05-12T22:57:24.159Z,52.76
2019-05-12T22:59:53.366Z,52.93
2019-05-12T23:02:27.985Z,52.97
2019-05-12T23:04:55.111Z,53.09
2019-05-12T23:07:25.421Z,53.21
2019-05-12T23:09:54.814Z,53.31
2019-05-12T23:12:23.787Z,53.59
2019-05-12T23:15:02.152Z,53.50
2019-05-12T23:17:24.628Z,53.70
2019-05-12T23:19:55.775Z,53.83
2019-05-12T23:22:29.440Z,53.76
2019-05-12T23:24:55.432Z,54.06
2019-05-12T23:27:29.753Z,53.99
2019-05-12T23:29:55.188Z,54.07
2019-05-12T23:32:24.302Z,53.99
2019-05-12T23:34:58.387Z,54.00
2019-05-12T23:37:24.496Z,54.19
2019-05-12T23:39:53.845Z,54.42
2019-05-12T23:42:23.714Z,54.44
2019-05-12T23:44:52.902Z,54.57
2019-05-12T23:47:23.787Z,54.75
2019-05-12T23:49:53.165Z,54.85
2019-05-12T23:52:24.100Z,55.02
2019-05-12T23:54:53.257Z,55.13
2019-05-12T23:57:24.151Z,55.20
2019-05-12T23:59:53.115Z,55.47
